Ruili, China
Current Conditions -  °F | °C
As of 8:30 PM on Thursday 29 Jan 2015 (Local Time) from VYMD Reporting Station
Haze Haze  
Wind Chill: 70°   Ceiling: Unl
Heat Index: 70°   Visibility: 3mi
Dew Point: 57°   Wind: 0mph
Humidity: 64%   Direction: NA
Pressure: 29.88"   Gusts: NA
Location:  24.02°N, 97.83°E
Report Text: VYMD 291230Z 00000KT 5000 BR NSC 21/14 Q1012
Loading
Personal Weather Stations






























Interactive Weather Map New forecast layout! Learn more

10-Day Weather Forecast

Advertisements
Track Severe Weather on mobile